TAF

Letisková predpoveď TAF

Informácie o správe TAF

28.03.2017 - 02:00 UTC

TAF LZSL 280200Z 2803/2812 VRB02KT CAVOK
    TEMPO 2803/2807 4000 MIFG SCT005=
TAF LZZI 280200Z 2803/2812 VRB02KT CAVOK
    TEMPO 2803/2807 4000 MIFG SCT005=

28.03.2017 - 23:00 UTC

TAF LZIB 282300Z 0100/0200 24015KT CAVOK
    TEMPO 0100/0104 27020G30KT 9999 -RA SCT035 BKN050
    BECMG 0101/0103 30010KT
    TEMPO 0111/0118 29015G25KT  =
TAF LZKZ 282300Z 0100/0200 20006KT 9999 SCT030 BKN070
    BECMG 0102/0104 -RA FEW023 OVC033
    PROB30 TEMPO 0110/0114 6000 RA OVC020
    BECMG 0114/0116 25003KT 3000 BR BKN020
    TEMPO 0118/0200 VRB02KT 1200 BR OVC012=
TAF LZTT 282300Z 0100/0200 25008KT 9999 -RA SCT040 OVC070
    TEMPO 0100/0104 25017G30KT
    BECMG 0106/0108 NSW
    TEMPO 0116/0118 CAVOK=

27.03.2017 - 08:00 UTC (Včera)

TAF LZSL 270800Z 2709/2718 02004KT CAVOK
    TEMPO 2710/2714 21006KT=
TAF LZPP 270800Z 2709/2718 35004KT CAVOK
    TEMPO 2710/2718 32010KT=
TAF LZZI 270800Z 2709/2718 06004KT CAVOK
    TEMPO 2710/2717 25008KT=

27.03.2017 - 05:00 UTC (Včera)

TAF LZIB 270500Z 2706/2806 06003KT CAVOK
    BECMG 2709/2711 31006KT
    BECMG 2718/2720 06003KT=
TAF LZKZ 270500Z 2706/2806 VRB02KT CAVOK
    TEMPO 2710/2716 19006KT 9999 SCT040 SCT060=
TAF LZTT 270500Z 2706/2806 28005KT CAVOK
    BECMG 2708/2710 09006KT 9999 SCT060
    BECMG 2800/2802 4000 MIFG SCT005
    PROB40 TEMPO 2802/2806 0600 FZFG BKN002=

skok na menu ↑


skok na začiatok stránky ↑